Ken Boothe Sr — WDG3360 — position and weather

sailwx.info

Track history (hours):
 
Tides and Currents Weather Stations Pressure Air Temp Water Temp Dewpoint Dewpoint Depression Visibility Wind Speed Wind Dir Waves Ship Positions

Ken Boothe Sr

Owner: AMERICAN STEAMSHIP COMPANY, WILLIAMSVILLE, NY. More information available from US FCC via Universal Licensing System and Coast Guard Vessel Documentation Center.

Last reported at 2015-Jul-01 18:28 UTC. Time now 2015-Jul-02 12:32 UTC.
Position N 44°56' W 086°25'.

Length 30 m; draft 7.7 m.

Type: Towing. MMSI: 367525230.

Date/timePositionNaut miles runAvg speedWind from/ knotsBaromVisibWave heightAir tempDewpointWater temp
2015-Jul-01 18:28N 44°56' W 086°25'1111.6
2015-Jul-01 17:33N 45°06' W 086°21'1211.5
2015-Jul-01 16:33N 45°18' W 086°16'1211.5
2015-Jul-01 15:33N 45°29' W 086°11'1211.6
2015-Jul-01 14:33N 45°40' W 086°07'1111.2
2015-Jul-01 13:33N 45°46' W 085°53'1111.4
2015-Jul-01 12:33N 45°51' W 085°39'1110.8
2015-Jul-01 11:33N 45°53' W 085°24'1111.3
2015-Jul-01 10:33N 45°52' W 085°08'1111.5
2015-Jul-01 09:33N 45°50' W 084°52'1111.0
2015-Jul-01 08:33N 45°46' W 084°37'1111.1
2015-Jul-01 07:33N 45°41' W 084°23'1110.7
2015-Jul-01 06:33N 45°39' W 084°08'  
2015-Jun-26 12:33N 45°25' W 083°47'0 0.0
2015-Jun-26 09:32N 45°25' W 083°47'0 0.0
2015-Jun-26 08:18N 45°25' W 083°47'0 0.0
2015-Jun-26 07:29N 45°25' W 083°47'  
2015-Jun-22 19:33N 45°58' W 085°52'0 0.0
2015-Jun-22 18:33N 45°58' W 085°52'0 0.0
2015-Jun-22 17:33N 45°58' W 085°52'0 0.0
2015-Jun-22 16:33N 45°58' W 085°52'0 0.0
2015-Jun-22 15:28N 45°58' W 085°52'0 0.1
2015-Jun-22 14:33N 45°58' W 085°52'0 0.0
2015-Jun-22 13:33N 45°58' W 085°52'1 1.2
2015-Jun-22 12:33N 45°57' W 085°53'6 5.7
2015-Jun-22 11:33N 45°51' W 085°55'6 6.0
2015-Jun-22 10:33N 45°46' W 085°58'1212.0
2015-Jun-22 09:33N 45°35' W 086°05'1212.1
2015-Jun-22 08:33N 45°24' W 086°13'1211.9
2015-Jun-22 07:33N 45°13' W 086°20'1212.0
2015-Jun-22 06:33N 45°02' W 086°27'1212.0
2015-Jun-22 05:32N 44°51' W 086°35'  
Track history (hours):
 
Tides and Currents Weather Stations Pressure Air Temp Water Temp Dewpoint Dewpoint Depression Visibility Wind Speed Wind Dir Waves Ship Positions

Ken Boothe Sr

Owner: AMERICAN STEAMSHIP COMPANY, WILLIAMSVILLE, NY. More information available from US FCC via Universal Licensing System and Coast Guard Vessel Documentation Center.

Last reported at 2015-Jul-01 18:28 UTC. Time now 2015-Jul-02 12:32 UTC.
Position N 44°56' W 086°25'.

Length 30 m; draft 7.7 m.

Type: Towing. MMSI: 367525230.

Date/timePositionNaut miles runAvg speedWind from/ knotsBaromVisibWave heightAir tempDewpointWater temp
2015-Jul-01 18:28N 44°56' W 086°25'1111.6
2015-Jul-01 17:33N 45°06' W 086°21'1211.5
2015-Jul-01 16:33N 45°18' W 086°16'1211.5
2015-Jul-01 15:33N 45°29' W 086°11'1211.6
2015-Jul-01 14:33N 45°40' W 086°07'1111.2
2015-Jul-01 13:33N 45°46' W 085°53'1111.4
2015-Jul-01 12:33N 45°51' W 085°39'1110.8
2015-Jul-01 11:33N 45°53' W 085°24'1111.3
2015-Jul-01 10:33N 45°52' W 085°08'1111.5
2015-Jul-01 09:33N 45°50' W 084°52'1111.0
2015-Jul-01 08:33N 45°46' W 084°37'1111.1
2015-Jul-01 07:33N 45°41' W 084°23'1110.7
2015-Jul-01 06:33N 45°39' W 084°08'  
2015-Jun-26 12:33N 45°25' W 083°47'0 0.0
2015-Jun-26 09:32N 45°25' W 083°47'0 0.0
2015-Jun-26 08:18N 45°25' W 083°47'0 0.0
2015-Jun-26 07:29N 45°25' W 083°47'  
2015-Jun-22 19:33N 45°58' W 085°52'0 0.0
2015-Jun-22 18:33N 45°58' W 085°52'0 0.0
2015-Jun-22 17:33N 45°58' W 085°52'0 0.0
2015-Jun-22 16:33N 45°58' W 085°52'0 0.0
2015-Jun-22 15:28N 45°58' W 085°52'0 0.1
2015-Jun-22 14:33N 45°58' W 085°52'0 0.0
2015-Jun-22 13:33N 45°58' W 085°52'1 1.2
2015-Jun-22 12:33N 45°57' W 085°53'6 5.7
2015-Jun-22 11:33N 45°51' W 085°55'6 6.0
2015-Jun-22 10:33N 45°46' W 085°58'1212.0
2015-Jun-22 09:33N 45°35' W 086°05'1212.1
2015-Jun-22 08:33N 45°24' W 086°13'1211.9
2015-Jun-22 07:33N 45°13' W 086°20'1212.0
2015-Jun-22 06:33N 45°02' W 086°27'1212.0
2015-Jun-22 05:32N 44°51' W 086°35'  

Dump ship's entire track history